createdAt,value
2018-03-28T00:02:04.465Z,4.70
2018-03-28T00:04:32.388Z,4.17
2018-03-28T00:07:00.210Z,4.40
2018-03-28T00:09:28.127Z,4.50
2018-03-28T00:11:55.892Z,4.10
2018-03-28T00:14:23.726Z,4.20
2018-03-28T00:16:51.495Z,4.20
2018-03-28T00:19:19.629Z,4.20
2018-03-28T00:21:47.514Z,4.10
2018-03-28T00:24:15.395Z,4.20
2018-03-28T00:26:43.257Z,4.20
2018-03-28T00:29:11.002Z,4.23
2018-03-28T00:31:39.010Z,4.33
2018-03-28T00:34:06.747Z,4.17
2018-03-28T00:36:34.506Z,4.60
2018-03-28T00:39:02.484Z,4.30
2018-03-28T00:41:30.464Z,4.00
2018-03-28T00:43:58.370Z,4.30
2018-03-28T00:46:26.189Z,3.90
2018-03-28T00:48:54.051Z,4.00
2018-03-28T00:51:21.865Z,3.70
2018-03-28T00:53:49.681Z,3.80
2018-03-28T00:56:17.564Z,4.10
2018-03-28T00:58:45.491Z,4.00
2018-03-28T01:01:13.477Z,3.80
2018-03-28T01:03:41.263Z,3.87
2018-03-28T01:06:09.162Z,3.90
2018-03-28T01:08:37.803Z,3.90
2018-03-28T01:11:05.731Z,4.00
2018-03-28T01:13:33.475Z,4.03
2018-03-28T01:16:01.246Z,3.77
2018-03-28T01:18:30.027Z,4.00
2018-03-28T01:20:58.549Z,3.63
2018-03-28T01:23:26.495Z,4.20
2018-03-28T01:25:54.435Z,4.17
2018-03-28T01:28:22.260Z,3.70
2018-03-28T01:30:50.187Z,3.60
2018-03-28T01:33:18.777Z,3.70
2018-03-28T01:35:46.789Z,3.53
2018-03-28T01:38:14.658Z,3.80
2018-03-28T01:40:42.519Z,3.33
2018-03-28T01:43:10.424Z,3.83
2018-03-28T01:45:38.370Z,3.73
2018-03-28T01:48:07.006Z,3.67
2018-03-28T01:50:34.886Z,3.40
2018-03-28T01:53:02.842Z,3.30
2018-03-28T01:55:30.855Z,3.57
2018-03-28T01:57:58.808Z,3.40
2018-03-28T02:00:26.528Z,3.40
2018-03-28T02:02:54.440Z,3.47
2018-03-28T02:05:22.285Z,3.23
2018-03-28T02:07:50.074Z,3.20
2018-03-28T02:10:17.938Z,3.27
2018-03-28T02:12:46.466Z,3.30
2018-03-28T02:15:14.320Z,3.30
2018-03-28T02:17:42.228Z,3.47
2018-03-28T02:20:10.019Z,3.13
2018-03-28T02:22:37.875Z,3.17
2018-03-28T02:25:06.570Z,3.43
2018-03-28T02:27:35.304Z,3.50
2018-03-28T02:30:03.152Z,3.00
2018-03-28T02:32:31.064Z,3.57
2018-03-28T02:34:59.021Z,3.27
2018-03-28T02:37:27.045Z,3.77
2018-03-28T02:39:54.834Z,3.20
2018-03-28T02:42:22.800Z,3.33
2018-03-28T02:44:50.804Z,3.30
2018-03-28T02:47:18.653Z,3.03
2018-03-28T02:49:46.526Z,3.37
2018-03-28T02:52:14.425Z,3.30
2018-03-28T02:54:43.098Z,3.37
2018-03-28T02:57:10.934Z,3.43
2018-03-28T02:59:38.816Z,3.20
2018-03-28T03:02:06.597Z,3.20
2018-03-28T03:04:35.339Z,3.27
2018-03-28T03:07:03.197Z,3.20
2018-03-28T03:09:31.144Z,3.20
2018-03-28T03:11:58.908Z,3.40
2018-03-28T03:14:26.806Z,2.97
2018-03-28T03:16:54.749Z,2.90
2018-03-28T03:19:22.683Z,3.17
2018-03-28T03:21:51.304Z,3.03
2018-03-28T03:24:19.247Z,3.00
2018-03-28T03:26:47.179Z,3.00
2018-03-28T03:29:15.051Z,3.00
2018-03-28T03:31:43.633Z,2.93
2018-03-28T03:34:12.143Z,3.10
2018-03-28T03:36:40.064Z,2.70
2018-03-28T03:39:08.101Z,2.77
2018-03-28T03:41:35.972Z,3.10
2018-03-28T03:44:03.842Z,2.80
2018-03-28T03:46:31.725Z,2.97
2018-03-28T03:48:59.529Z,3.10
2018-03-28T03:51:28.167Z,2.80
2018-03-28T03:53:56.034Z,2.70
2018-03-28T03:56:23.882Z,2.60
2018-03-28T03:58:51.825Z,2.63
2018-03-28T04:01:19.745Z,2.53
2018-03-28T04:03:47.645Z,2.70
2018-03-28T04:06:15.475Z,3.03
2018-03-28T04:08:43.443Z,2.87
2018-03-28T04:11:11.260Z,2.70
2018-03-28T04:13:39.155Z,2.83
2018-03-28T04:16:07.067Z,2.80
2018-03-28T04:18:35.724Z,2.57
2018-03-28T04:21:03.583Z,2.70
2018-03-28T04:23:31.402Z,2.60
2018-03-28T04:25:59.391Z,2.60
2018-03-28T04:28:27.264Z,2.50
2018-03-28T04:30:55.192Z,2.70
2018-03-28T04:33:23.161Z,2.80
2018-03-28T04:35:50.979Z,2.60
2018-03-28T04:38:18.904Z,2.40
2018-03-28T04:40:46.767Z,2.80
2018-03-28T04:43:14.564Z,2.47
2018-03-28T04:45:42.550Z,2.73
2018-03-28T04:48:10.500Z,2.70
2018-03-28T04:50:38.400Z,2.50
2018-03-28T04:53:07.057Z,2.70
2018-03-28T04:55:34.980Z,2.40
2018-03-28T04:58:02.982Z,2.53
2018-03-28T05:00:30.751Z,2.80
2018-03-28T05:02:58.594Z,2.30
2018-03-28T05:05:26.591Z,2.40
2018-03-28T05:07:54.453Z,2.47
2018-03-28T05:10:22.246Z,2.60
2018-03-28T05:12:50.817Z,2.37
2018-03-28T05:15:19.380Z,2.60
2018-03-28T05:17:47.209Z,2.40
2018-03-28T05:20:15.093Z,2.73
2018-03-28T05:22:42.902Z,2.60
2018-03-28T05:25:10.847Z,2.63
2018-03-28T05:27:38.598Z,2.17
2018-03-28T05:30:06.480Z,2.20
2018-03-28T05:32:34.449Z,2.60
2018-03-28T05:35:02.248Z,2.23
2018-03-28T05:37:30.123Z,2.30
2018-03-28T05:39:58.079Z,2.30
2018-03-28T05:42:25.874Z,2.30
2018-03-28T05:44:53.890Z,2.17
2018-03-28T05:47:22.586Z,2.20
2018-03-28T05:49:50.424Z,2.60
2018-03-28T05:52:18.296Z,2.50
2018-03-28T05:54:47.017Z,2.60
2018-03-28T05:57:14.763Z,2.60
2018-03-28T05:59:42.539Z,2.80
2018-03-28T06:02:10.305Z,2.73
2018-03-28T06:04:38.056Z,2.60
2018-03-28T06:07:05.889Z,2.53
2018-03-28T06:09:34.900Z,6.23
2018-03-28T06:12:05.275Z,7.73
2018-03-28T06:14:34.248Z,7.73
2018-03-28T06:17:03.828Z,9.20
2018-03-28T06:19:32.288Z,10.07
2018-03-28T06:22:00.815Z,8.90
2018-03-28T06:24:30.230Z,6.27
2018-03-28T06:26:59.673Z,5.73
2018-03-28T06:29:29.245Z,5.20
2018-03-28T06:31:58.570Z,5.47
2018-03-28T06:34:27.993Z,4.60
2018-03-28T06:36:57.409Z,5.97
2018-03-28T06:39:26.820Z,5.27
2018-03-28T06:41:56.242Z,4.17
2018-03-28T06:44:26.644Z,5.40
2018-03-28T06:46:56.083Z,6.57
2018-03-28T06:49:25.524Z,5.63
2018-03-28T06:51:54.875Z,6.03
2018-03-28T06:54:24.305Z,5.90
2018-03-28T06:56:53.809Z,6.63
2018-03-28T06:59:23.375Z,5.67
2018-03-28T07:01:52.802Z,6.43
2018-03-28T07:04:21.828Z,7.30
2018-03-28T07:06:51.125Z,7.70
2018-03-28T07:09:20.533Z,8.57
2018-03-28T07:11:49.906Z,7.67
2018-03-28T07:14:19.431Z,8.03
2018-03-28T07:16:48.838Z,8.10
2018-03-28T07:19:18.301Z,7.73
2018-03-28T07:21:47.667Z,8.33
2018-03-28T07:24:17.226Z,9.00
2018-03-28T07:26:46.738Z,9.23
2018-03-28T07:29:16.280Z,9.10
2018-03-28T07:31:45.662Z,9.30
2018-03-28T07:34:15.118Z,9.70
2018-03-28T07:36:44.722Z,15.20
2018-03-28T07:39:14.122Z,20.33
2018-03-28T07:41:43.528Z,18.97
2018-03-28T07:44:13.043Z,18.67
2018-03-28T07:46:42.713Z,18.20
2018-03-28T07:49:12.228Z,17.83
2018-03-28T07:51:41.624Z,16.70
2018-03-28T07:54:11.037Z,16.10
2018-03-28T07:56:40.484Z,14.53
2018-03-28T07:59:09.846Z,14.30
2018-03-28T08:01:39.187Z,14.13
2018-03-28T08:04:08.678Z,13.50
2018-03-28T08:06:38.194Z,12.90
2018-03-28T08:09:07.619Z,14.20
2018-03-28T08:11:37.062Z,14.67
2018-03-28T08:14:06.517Z,13.63
2018-03-28T08:16:36.020Z,14.00
2018-03-28T08:19:05.500Z,14.27
2018-03-28T08:21:35.048Z,14.97
2018-03-28T08:24:04.369Z,15.00
2018-03-28T08:26:33.703Z,17.37
2018-03-28T08:29:03.051Z,19.37
2018-03-28T08:31:32.380Z,18.77
2018-03-28T08:34:01.749Z,18.60
2018-03-28T08:36:31.079Z,18.57
2018-03-28T08:39:00.450Z,18.63
2018-03-28T08:41:29.849Z,17.13
2018-03-28T08:43:59.209Z,17.37
2018-03-28T08:46:28.598Z,16.17
2018-03-28T08:48:58.053Z,16.87
2018-03-28T08:51:27.437Z,16.07
2018-03-28T08:53:56.880Z,14.83
2018-03-28T08:56:26.255Z,13.67
2018-03-28T08:58:55.625Z,12.57
2018-03-28T09:01:25.088Z,13.67
2018-03-28T09:03:54.628Z,12.97
2018-03-28T09:06:24.030Z,13.43
2018-03-28T09:08:53.456Z,11.80
2018-03-28T09:11:22.928Z,12.27
2018-03-28T09:13:52.494Z,11.27
2018-03-28T09:16:22.061Z,11.57
2018-03-28T09:18:51.621Z,12.10
2018-03-28T09:21:21.033Z,13.20
2018-03-28T09:23:50.585Z,13.23
2018-03-28T09:26:19.984Z,14.87
2018-03-28T09:28:49.536Z,15.13
2018-03-28T09:31:18.898Z,14.33
2018-03-28T09:33:48.302Z,14.70
2018-03-28T09:36:17.814Z,14.27
2018-03-28T09:38:47.240Z,15.87
2018-03-28T09:41:16.627Z,16.37
2018-03-28T09:43:46.091Z,16.50
2018-03-28T09:46:15.552Z,18.13
2018-03-28T09:48:45.106Z,17.47
2018-03-28T09:51:14.707Z,18.13
2018-03-28T09:53:44.178Z,17.37
2018-03-28T09:56:13.573Z,18.97
2018-03-28T09:58:43.032Z,20.33
2018-03-28T10:01:12.475Z,22.07
2018-03-28T10:03:41.917Z,24.30
2018-03-28T10:06:11.383Z,22.77
2018-03-28T10:08:40.935Z,24.00
2018-03-28T10:11:10.412Z,25.20
2018-03-28T10:13:39.971Z,25.70
2018-03-28T10:16:09.374Z,23.67
2018-03-28T10:18:39.012Z,24.00
2018-03-28T10:21:08.426Z,24.67
2018-03-28T10:23:37.975Z,23.17
2018-03-28T10:26:07.400Z,23.10
2018-03-28T10:28:36.824Z,22.63
2018-03-28T10:31:06.337Z,24.13
2018-03-28T10:33:35.739Z,24.30
2018-03-28T10:36:05.214Z,25.43
2018-03-28T10:38:34.643Z,25.13
2018-03-28T10:41:04.076Z,26.47
2018-03-28T10:43:33.575Z,25.57
2018-03-28T10:46:03.212Z,24.13
2018-03-28T10:48:32.804Z,24.40
2018-03-28T10:51:02.312Z,23.60
2018-03-28T10:53:31.683Z,24.27
2018-03-28T10:56:01.114Z,23.80
2018-03-28T10:58:30.744Z,25.67
2018-03-28T11:01:00.325Z,23.73
2018-03-28T11:03:29.811Z,25.67
2018-03-28T11:05:59.207Z,25.53
2018-03-28T11:08:29.570Z,26.13
2018-03-28T11:10:58.991Z,24.67
2018-03-28T11:13:28.401Z,24.70
2018-03-28T11:15:57.838Z,23.73
2018-03-28T11:18:27.353Z,24.30
2018-03-28T11:20:56.944Z,22.43
2018-03-28T11:23:26.437Z,23.13
2018-03-28T11:25:56.087Z,22.93
2018-03-28T11:28:25.578Z,22.07
2018-03-28T11:30:55.083Z,21.43
2018-03-28T11:33:24.574Z,19.63
2018-03-28T11:35:53.936Z,18.70
2018-03-28T11:38:23.522Z,18.60
2018-03-28T11:40:53.026Z,16.87
2018-03-28T11:43:22.487Z,16.43
2018-03-28T11:45:52.098Z,16.92
2018-03-28T11:48:21.591Z,15.83
2018-03-28T11:50:51.079Z,17.23
2018-03-28T11:53:20.460Z,20.20
2018-03-28T11:55:50.219Z,21.73
2018-03-28T11:58:19.737Z,23.53
2018-03-28T12:00:49.178Z,23.57
2018-03-28T12:03:18.539Z,30.33
2018-03-28T12:05:47.987Z,32.20
2018-03-28T12:08:17.575Z,34.87
2018-03-28T12:10:47.025Z,41.40
2018-03-28T12:13:16.466Z,42.80
2018-03-28T12:15:46.032Z,44.83
2018-03-28T12:18:15.619Z,46.37
2018-03-28T12:20:45.135Z,48.23
2018-03-28T12:23:14.569Z,50.60
2018-03-28T12:25:44.075Z,49.27
2018-03-28T12:28:13.589Z,50.47
2018-03-28T12:30:43.041Z,55.15
2018-03-28T12:33:12.500Z,52.17
2018-03-28T12:35:42.020Z,52.70
2018-03-28T12:38:11.495Z,53.13
2018-03-28T12:40:40.899Z,46.60
2018-03-28T12:43:10.329Z,52.83
2018-03-28T12:45:39.745Z,50.60
2018-03-28T12:48:09.114Z,51.53
2018-03-28T12:50:38.547Z,47.90
2018-03-28T12:53:07.979Z,48.27
2018-03-28T12:55:37.453Z,47.70
2018-03-28T12:58:07.634Z,45.80
2018-03-28T13:00:37.136Z,44.63
2018-03-28T13:03:06.480Z,45.07
2018-03-28T13:05:35.963Z,44.70
2018-03-28T13:08:06.428Z,44.50
2018-03-28T13:10:35.788Z,44.30
2018-03-28T13:13:05.230Z,40.53
2018-03-28T13:15:34.654Z,42.33
2018-03-28T13:18:04.103Z,42.80
2018-03-28T13:20:33.606Z,40.73
2018-03-28T13:23:03.221Z,41.37
2018-03-28T13:25:37.684Z,39.90
2018-03-28T13:28:07.266Z,40.30
2018-03-28T13:30:36.632Z,38.50
2018-03-28T13:33:06.027Z,38.20
2018-03-28T13:35:35.465Z,38.20
2018-03-28T13:38:04.828Z,36.03
2018-03-28T13:40:34.378Z,34.57
2018-03-28T13:43:03.904Z,34.10
2018-03-28T13:45:33.276Z,33.87
2018-03-28T13:48:02.708Z,33.37
2018-03-28T13:50:32.160Z,32.13
2018-03-28T13:53:01.553Z,30.70
2018-03-28T13:55:30.976Z,30.77
2018-03-28T13:58:00.408Z,31.63
2018-03-28T14:00:29.880Z,32.23
2018-03-28T14:02:59.312Z,32.60
2018-03-28T14:05:27.066Z,36.13
2018-03-28T14:07:54.812Z,34.37
2018-03-28T14:10:23.763Z,36.13
2018-03-28T14:12:51.544Z,35.63
2018-03-28T14:15:19.362Z,35.57
2018-03-28T14:17:47.933Z,37.23
2018-03-28T14:20:15.823Z,38.10
2018-03-28T14:22:43.556Z,37.80
2018-03-28T14:25:11.464Z,36.87
2018-03-28T14:27:39.220Z,35.13
2018-03-28T14:30:07.023Z,36.57
2018-03-28T14:32:34.853Z,35.23
2018-03-28T14:35:02.688Z,34.83
2018-03-28T14:37:30.444Z,32.50
2018-03-28T14:39:58.238Z,32.73
2018-03-28T14:42:26.059Z,32.93
2018-03-28T14:44:54.871Z,31.13
2018-03-28T14:47:22.738Z,29.23
2018-03-28T14:49:50.756Z,28.07
2018-03-28T14:52:18.595Z,27.80
2018-03-28T14:54:46.322Z,26.40
2018-03-28T14:57:14.114Z,25.97
2018-03-28T14:59:41.912Z,24.57
2018-03-28T15:02:09.876Z,23.80
2018-03-28T15:04:37.677Z,22.50
2018-03-28T15:07:05.574Z,22.03
2018-03-28T15:09:33.385Z,20.77
2018-03-28T15:12:01.968Z,20.93
2018-03-28T15:14:31.406Z,20.67
2018-03-28T15:16:59.222Z,21.33
2018-03-28T15:19:26.913Z,20.10
2018-03-28T15:21:54.713Z,20.10
2018-03-28T15:24:22.570Z,19.37
2018-03-28T15:26:50.486Z,19.73
2018-03-28T15:29:19.076Z,18.87
2018-03-28T15:31:47.705Z,18.60
2018-03-28T15:34:15.480Z,17.93
2018-03-28T15:36:43.326Z,18.00
2018-03-28T15:39:11.108Z,17.67
2018-03-28T15:41:39.076Z,18.33
2018-03-28T15:44:06.869Z,17.80
2018-03-28T15:46:35.384Z,17.23
2018-03-28T15:49:03.280Z,16.40
2018-03-28T15:51:31.119Z,17.87
2018-03-28T15:53:58.907Z,17.23
2018-03-28T15:56:26.692Z,17.73
2018-03-28T15:58:54.548Z,17.17
2018-03-28T16:01:22.488Z,17.17
2018-03-28T16:03:50.378Z,18.00
2018-03-28T16:06:18.142Z,16.93
2018-03-28T16:08:45.954Z,17.47
2018-03-28T16:11:13.803Z,18.07
2018-03-28T16:13:42.469Z,17.37
2018-03-28T16:16:10.247Z,16.10
2018-03-28T16:18:38.909Z,16.90
2018-03-28T16:21:06.708Z,15.90
2018-03-28T16:23:34.520Z,16.57
2018-03-28T16:26:02.416Z,15.87
2018-03-28T16:28:31.062Z,16.03
2018-03-28T16:30:58.813Z,16.40
2018-03-28T16:33:26.739Z,16.00
2018-03-28T16:35:55.356Z,16.30
2018-03-28T16:38:23.142Z,16.00
2018-03-28T16:40:50.985Z,15.30
2018-03-28T16:43:18.734Z,15.17
2018-03-28T16:45:46.559Z,15.53
2018-03-28T16:48:14.490Z,15.87
2018-03-28T16:50:42.236Z,15.90
2018-03-28T16:53:10.189Z,15.77
2018-03-28T16:55:37.956Z,15.40
2018-03-28T16:58:05.853Z,14.47
2018-03-28T17:00:33.745Z,14.33
2018-03-28T17:03:01.637Z,13.77
2018-03-28T17:05:29.498Z,14.77
2018-03-28T17:07:58.977Z,15.87
2018-03-28T17:10:26.723Z,14.83
2018-03-28T17:12:54.687Z,14.57
2018-03-28T17:15:22.506Z,15.17
2018-03-28T17:17:50.327Z,14.77
2018-03-28T17:20:18.327Z,14.83
2018-03-28T17:22:46.966Z,13.83
2018-03-28T17:25:15.137Z,13.77
2018-03-28T17:27:43.106Z,13.50
2018-03-28T17:30:11.078Z,12.93
2018-03-28T17:32:38.883Z,13.03
2018-03-28T17:35:06.820Z,12.80
2018-03-28T17:37:35.429Z,12.80
2018-03-28T17:40:03.356Z,13.20
2018-03-28T17:42:31.179Z,12.77
2018-03-28T17:44:59.185Z,12.77
2018-03-28T17:47:27.093Z,12.57
2018-03-28T17:49:55.708Z,13.00
2018-03-28T17:52:23.473Z,13.13
2018-03-28T17:54:51.310Z,12.77
2018-03-28T17:57:19.136Z,13.27
2018-03-28T17:59:46.915Z,12.90
2018-03-28T18:02:15.839Z,12.77
2018-03-28T18:04:43.742Z,13.03
2018-03-28T18:07:11.657Z,13.17
2018-03-28T18:09:39.412Z,13.50
2018-03-28T18:12:07.290Z,12.80
2018-03-28T18:14:35.183Z,13.50
2018-03-28T18:17:03.172Z,13.30
2018-03-28T18:19:30.907Z,12.73
2018-03-28T18:21:58.800Z,12.50
2018-03-28T18:24:26.635Z,12.53
2018-03-28T18:26:54.613Z,12.27
2018-03-28T18:29:22.393Z,12.47
2018-03-28T18:31:50.132Z,11.87
2018-03-28T18:34:17.909Z,12.80
2018-03-28T18:36:45.813Z,12.60
2018-03-28T18:39:14.330Z,12.20
2018-03-28T18:41:42.208Z,12.60
2018-03-28T18:44:10.131Z,11.93
2018-03-28T18:46:38.757Z,12.27
2018-03-28T18:49:06.612Z,12.70
2018-03-28T18:51:34.616Z,12.63
2018-03-28T18:54:02.431Z,12.43
2018-03-28T18:56:30.292Z,11.93
2018-03-28T18:58:58.196Z,12.70
2018-03-28T19:01:26.033Z,11.83
2018-03-28T19:03:54.003Z,12.10
2018-03-28T19:06:21.914Z,12.27
2018-03-28T19:08:49.793Z,12.40
2018-03-28T19:11:18.456Z,12.17
2018-03-28T19:13:46.457Z,11.67
2018-03-28T19:16:15.057Z,12.27
2018-03-28T19:18:42.846Z,12.10
2018-03-28T19:21:10.785Z,12.07
2018-03-28T19:23:38.542Z,12.30
2018-03-28T19:26:06.513Z,11.80
2018-03-28T19:28:34.413Z,12.90
2018-03-28T19:31:02.246Z,11.47
2018-03-28T19:33:30.131Z,11.43
2018-03-28T19:35:58.037Z,12.87
2018-03-28T19:38:25.967Z,12.27
2018-03-28T19:40:53.712Z,11.73
2018-03-28T19:43:21.517Z,11.40
2018-03-28T19:45:49.341Z,11.73
2018-03-28T19:48:17.233Z,11.73
2018-03-28T19:50:45.180Z,11.87
2018-03-28T19:53:13.150Z,11.30
2018-03-28T19:55:41.091Z,11.50
2018-03-28T19:58:08.870Z,11.40
2018-03-28T20:00:36.706Z,10.57
2018-03-28T20:03:05.555Z,10.87
2018-03-28T20:05:33.528Z,11.40
2018-03-28T20:08:01.351Z,10.77
2018-03-28T20:10:29.161Z,11.23
2018-03-28T20:12:57.089Z,11.07
2018-03-28T20:15:25.074Z,11.03
2018-03-28T20:17:52.909Z,10.90
2018-03-28T20:20:20.866Z,11.77
2018-03-28T20:22:48.894Z,11.10
2018-03-28T20:25:16.802Z,10.80
2018-03-28T20:27:44.822Z,11.37
2018-03-28T20:30:12.653Z,11.90
2018-03-28T20:32:40.419Z,10.77
2018-03-28T20:35:08.309Z,10.93
2018-03-28T20:37:36.179Z,11.17
2018-03-28T20:40:03.997Z,11.07
2018-03-28T20:42:31.884Z,10.70
2018-03-28T20:44:59.639Z,10.87
2018-03-28T20:47:27.549Z,10.60
2018-03-28T20:49:55.355Z,11.00
2018-03-28T20:52:23.311Z,11.67
2018-03-28T20:54:51.140Z,10.40
2018-03-28T20:57:18.940Z,10.83
2018-03-28T20:59:46.820Z,10.07
2018-03-28T21:02:14.716Z,10.83
2018-03-28T21:04:42.738Z,10.67
2018-03-28T21:07:10.613Z,10.50
2018-03-28T21:09:38.565Z,10.80
2018-03-28T21:12:07.359Z,10.57
2018-03-28T21:14:35.229Z,10.87
2018-03-28T21:17:02.994Z,10.33
2018-03-28T21:19:30.932Z,10.80
2018-03-28T21:21:59.618Z,10.47
2018-03-28T21:24:28.124Z,10.50
2018-03-28T21:26:55.987Z,10.60
2018-03-28T21:29:23.788Z,9.27
2018-03-28T21:31:51.592Z,10.67
2018-03-28T21:34:20.295Z,10.47
2018-03-28T21:36:48.258Z,9.80
2018-03-28T21:39:16.062Z,9.37
2018-03-28T21:41:43.912Z,10.07
2018-03-28T21:44:11.716Z,9.57
2018-03-28T21:46:39.688Z,10.23
2018-03-28T21:49:07.459Z,10.47
2018-03-28T21:51:36.260Z,10.33
2018-03-28T21:54:04.089Z,9.63
2018-03-28T21:56:31.994Z,10.57
2018-03-28T21:58:59.886Z,9.87
2018-03-28T22:01:27.838Z,9.60
2018-03-28T22:03:55.769Z,10.50
2018-03-28T22:06:24.280Z,10.23
2018-03-28T22:08:52.105Z,9.53
2018-03-28T22:11:19.992Z,10.73
2018-03-28T22:13:48.654Z,9.97
2018-03-28T22:16:16.527Z,9.47
2018-03-28T22:18:45.108Z,9.97
2018-03-28T22:21:13.091Z,9.83
2018-03-28T22:23:41.856Z,9.30
2018-03-28T22:26:10.428Z,9.70
2018-03-28T22:28:38.179Z,9.60
2018-03-28T22:31:06.069Z,9.40
2018-03-28T22:33:33.823Z,9.50
2018-03-28T22:36:01.626Z,9.80
2018-03-28T22:38:29.347Z,9.53
2018-03-28T22:40:57.179Z,8.97
2018-03-28T22:43:25.044Z,9.40
2018-03-28T22:45:52.997Z,9.27
2018-03-28T22:48:20.865Z,9.50
2018-03-28T22:50:49.321Z,9.10
2018-03-28T22:53:17.150Z,9.50
2018-03-28T22:55:44.932Z,8.90
2018-03-28T22:58:13.619Z,9.00
2018-03-28T23:00:41.658Z,9.30
2018-03-28T23:03:09.401Z,9.00
2018-03-28T23:05:37.326Z,9.03
2018-03-28T23:08:05.104Z,9.00
2018-03-28T23:10:32.848Z,9.23
2018-03-28T23:13:00.758Z,9.17
2018-03-28T23:15:28.570Z,8.57
2018-03-28T23:17:57.240Z,8.87
2018-03-28T23:20:25.095Z,8.60
2018-03-28T23:22:52.842Z,9.10
2018-03-28T23:25:20.790Z,8.57
2018-03-28T23:27:48.654Z,8.47
2018-03-28T23:30:16.465Z,9.00
2018-03-28T23:32:45.192Z,8.43
2018-03-28T23:35:13.001Z,8.40
2018-03-28T23:37:40.772Z,8.77
2018-03-28T23:40:09.349Z,8.57
2018-03-28T23:42:37.092Z,8.90
2018-03-28T23:45:04.921Z,8.70
2018-03-28T23:47:32.748Z,8.60
2018-03-28T23:50:02.265Z,9.10
2018-03-28T23:52:30.040Z,8.30
2018-03-28T23:54:57.820Z,8.57
2018-03-28T23:57:25.539Z,7.97
2018-03-28T23:59:54.276Z,8.93
